Time;durP1;ratioP1;P1;durP2;ratioP2;P2;SDS_P1;SDS_P2;PMS_P1;PMS_P2;Temp;Humidity;BMP_temperature;BMP_pressure;BME280_temperature;BME280_humidity;BME280_pressure;Samples;Min_cycle;Max_cycle;Signal;HPM_P1;HPM_P2
2022/11/06 00:00:57;;;;;;;16.55;7.03;;;9.80;99.90;;;;;;4972365;28;20117;-74
2022/11/06 00:03:23;;;;;;;7.80;5.57;;;9.70;99.90;;;;;;4986531;28;20045;-74
2022/11/06 00:08:39;;;;;;;14.43;7.03;;;9.70;99.90;;;;;;4963359;28;20047;-74
2022/11/06 00:11:13;;;;;;;18.08;6.60;;;9.70;99.90;;;;;;4968959;28;20090;-76
2022/11/06 00:13:39;;;;;;;8.13;5.97;;;9.50;99.90;;;;;;4968886;28;20046;-76
2022/11/06 00:16:07;;;;;;;9.60;7.32;;;9.60;99.90;;;;;;4983462;28;20405;-75
2022/11/06 00:18:34;;;;;;;11.77;6.15;;;9.60;99.90;;;;;;4985314;28;20038;-75
2022/11/06 00:21:13;;;;;;;12.70;8.13;;;9.50;99.90;;;;;;4984761;28;20090;-74
2022/11/06 00:23:39;;;;;;;11.82;7.35;;;9.50;99.90;;;;;;4970242;28;20042;-73
2022/11/06 00:26:07;;;;;;;12.45;7.80;;;9.50;99.90;;;;;;4970647;28;20063;-74
2022/11/06 00:28:33;;;;;;;12.25;7.97;;;9.40;99.90;;;;;;4969029;28;20117;-75
2022/11/06 00:31:03;;;;;;;14.50;7.72;;;9.50;99.90;;;;;;4965364;28;20138;-74
2022/11/06 00:33:29;;;;;;;14.23;7.90;;;9.40;99.90;;;;;;4970530;28;20505;-75
2022/11/06 00:35:55;;;;;;;14.25;7.45;;;9.40;99.90;;;;;;4968529;28;20078;-74
2022/11/06 00:38:21;;;;;;;12.85;7.60;;;9.40;99.90;;;;;;4939233;28;20395;-76
2022/11/06 00:40:46;;;;;;;11.65;6.30;;;9.40;99.90;;;;;;4973454;28;20118;-74
2022/11/06 00:43:12;;;;;;;14.82;7.90;;;9.40;99.90;;;;;;4970872;28;20089;-74
2022/11/06 00:45:38;;;;;;;10.75;7.25;;;9.50;99.90;;;;;;4984976;28;20047;-76
2022/11/06 00:48:04;;;;;;;12.18;7.45;;;9.30;99.90;;;;;;4970961;28;20051;-75
2022/11/06 00:50:29;;;;;;;14.38;8.48;;;9.50;99.90;;;;;;4969535;28;20053;-74
2022/11/06 00:52:55;;;;;;;11.23;7.53;;;9.50;99.90;;;;;;4970007;28;20207;-75
2022/11/06 00:55:20;;;;;;;11.75;7.32;;;9.40;99.90;;;;;;4971681;28;20072;-74
2022/11/06 00:57:46;;;;;;;11.13;7.20;;;9.50;99.90;;;;;;4972972;28;20042;-74
2022/11/06 01:00:12;;;;;;;17.63;8.73;;;9.30;99.90;;;;;;4970255;28;20516;-75
2022/11/06 01:02:38;;;;;;;15.18;8.23;;;9.50;99.90;;;;;;4948883;28;20056;-73
2022/11/06 01:05:04;;;;;;;20.48;9.32;;;9.50;99.90;;;;;;4951082;28;20043;-75
2022/11/06 01:07:30;;;;;;;11.52;7.25;;;9.50;99.90;;;;;;4978572;28;20049;-74
2022/11/06 01:09:55;;;;;;;18.45;9.45;;;9.40;99.90;;;;;;4976081;28;20118;-74
2022/11/06 01:12:21;;;;;;;20.92;10.25;;;9.40;99.90;;;;;;4970035;28;20117;-74
2022/11/06 01:14:47;;;;;;;16.42;9.25;;;9.40;99.90;;;;;;4970503;28;20086;-78
2022/11/06 01:17:13;;;;;;;10.73;7.70;;;9.40;99.90;;;;;;4970126;28;20130;-75
2022/11/06 01:19:39;;;;;;;15.77;8.05;;;9.50;99.90;;;;;;4968273;28;20051;-74
2022/11/06 01:22:04;;;;;;;15.43;9.07;;;9.30;99.90;;;;;;4980952;28;20550;-74
2022/11/06 01:24:30;;;;;;;14.38;8.65;;;9.40;99.90;;;;;;4956736;28;20470;-74
2022/11/06 01:26:56;;;;;;;14.43;9.40;;;9.30;99.90;;;;;;4969420;28;20077;-74
2022/11/06 01:29:21;;;;;;;12.98;8.13;;;9.30;99.90;;;;;;4968569;28;20043;-74
2022/11/06 01:31:50;;;;;;;15.48;9.38;;;9.40;99.90;;;;;;4983363;28;20046;-76
2022/11/06 01:34:17;;;;;;;12.93;8.40;;;9.30;99.90;;;;;;4950786;28;20050;-73
2022/11/06 01:36:42;;;;;;;12.82;8.48;;;9.30;99.90;;;;;;4964727;28;20050;-73
2022/11/06 01:39:11;;;;;;;12.70;8.27;;;9.30;99.90;;;;;;4968305;28;20045;-74
2022/11/06 01:41:40;;;;;;;16.48;9.05;;;9.40;99.90;;;;;;4964426;28;20043;-75
2022/11/06 01:44:34;;;;;;;13.95;8.70;;;9.40;99.90;;;;;;4933515;28;20438;-75
2022/11/06 01:47:16;;;;;;;17.00;8.25;;;9.20;99.90;;;;;;4966452;28;20059;-75
2022/11/06 01:49:41;;;;;;;20.40;9.60;;;9.30;99.90;;;;;;4956211;28;20043;-73
2022/11/06 01:52:09;;;;;;;19.88;9.75;;;9.30;99.90;;;;;;4966781;28;20133;-74
2022/11/06 01:54:38;;;;;;;11.85;8.68;;;9.30;99.90;;;;;;4967324;28;20127;-74
2022/11/06 01:57:05;;;;;;;26.30;9.77;;;9.10;99.90;;;;;;4951090;28;20510;-75
2022/11/06 01:59:34;;;;;;;16.08;8.45;;;9.30;99.90;;;;;;4968476;28;20047;-74
2022/11/06 02:02:00;;;;;;;12.88;7.25;;;9.40;99.90;;;;;;4951370;28;20115;-75
2022/11/06 02:04:31;;;;;;;16.88;8.20;;;9.40;99.90;;;;;;4949633;28;20494;-77
2022/11/06 02:06:58;;;;;;;11.45;7.80;;;9.30;99.90;;;;;;4985794;28;20054;-74
2022/11/06 02:09:24;;;;;;;10.45;7.80;;;9.40;99.90;;;;;;4971832;28;20057;-76
2022/11/06 02:11:57;;;;;;;20.65;11.65;;;9.20;99.90;;;;;;4972409;28;20562;-75
2022/11/06 02:14:49;;;;;;;14.65;9.50;;;9.40;99.90;;;;;;4959032;28;20055;-75
2022/11/06 02:17:21;;;;;;;18.23;10.18;;;9.30;99.90;;;;;;4969515;28;20040;-75
2022/11/06 02:20:11;;;;;;;14.93;10.82;;;9.40;99.90;;;;;;4982966;28;20401;-75
2022/11/06 02:22:56;;;;;;;15.02;9.65;;;9.40;99.90;;;;;;4972220;28;20038;-74
2022/11/06 02:26:02;;;;;;;15.63;9.27;;;9.40;99.90;;;;;;4971918;28;20479;-75
2022/11/06 02:28:40;;;;;;;12.65;9.90;;;9.40;99.90;;;;;;4927730;28;20510;-74
2022/11/06 02:31:12;;;;;;;13.77;9.13;;;9.30;99.90;;;;;;4971816;28;20049;-76
2022/11/06 02:33:46;;;;;;;18.95;10.57;;;9.30;99.90;;;;;;4950995;29;20051;-75
2022/11/06 02:36:18;;;;;;;13.02;9.63;;;9.30;99.90;;;;;;4972171;28;20043;-74
2022/11/06 02:38:52;;;;;;;17.25;10.60;;;9.50;99.90;;;;;;4939528;28;20050;-75
2022/11/06 02:41:22;;;;;;;16.90;10.50;;;9.30;99.90;;;;;;4972844;28;20050;-74
2022/11/06 02:43:50;;;;;;;;;;;9.30;99.90;;;;;;4968729;28;20054;-74
2022/11/06 02:46:37;;;;;;;13.45;9.98;;;9.40;99.90;;;;;;4973087;28;19922;-75
2022/11/06 02:49:29;;;;;;;14.48;10.90;;;9.30;99.90;;;;;;4972585;28;20053;-74
2022/11/06 02:52:11;;;;;;;15.23;9.95;;;9.40;99.90;;;;;;4965744;28;20126;-75
2022/11/06 02:54:43;;;;;;;17.75;10.30;;;9.30;99.90;;;;;;4971995;28;20042;-75
2022/11/06 02:57:14;;;;;;;14.75;10.82;;;9.30;99.90;;;;;;4972046;28;20046;-75
2022/11/06 02:59:46;;;;;;;14.90;9.80;;;9.50;99.90;;;;;;4971610;28;20043;-74
2022/11/06 03:02:26;;;;;;;14.20;10.05;;;9.40;99.90;;;;;;4972439;28;20054;-75
2022/11/06 03:04:56;;;;;;;20.90;12.20;;;9.30;99.90;;;;;;4986970;28;20129;-74
2022/11/06 03:07:22;;;;;;;;;;;9.50;99.90;;;;;;4971829;28;20043;-74
2022/11/06 03:09:48;;;;;;;11.07;8.05;;;9.50;99.90;;;;;;4972296;28;19933;-74
2022/11/06 03:12:43;;;;;;;10.60;8.63;;;9.40;99.90;;;;;;4969116;28;20133;-75
2022/11/06 03:15:25;;;;;;;12.45;9.93;;;9.60;99.90;;;;;;4953036;28;20047;-75
2022/11/06 03:18:01;;;;;;;17.95;10.75;;;9.40;99.90;;;;;;4959760;28;20047;-74
2022/11/06 03:20:35;;;;;;;15.13;10.10;;;9.40;99.90;;;;;;4974482;28;20050;-75
2022/11/06 03:23:13;;;;;;;12.85;10.30;;;9.40;99.90;;;;;;4962322;28;20122;-73
2022/11/06 03:26:08;;;;;;;20.98;10.60;;;9.50;99.90;;;;;;4959176;28;20051;-76
2022/11/06 03:28:41;;;;;;;12.20;10.10;;;9.40;99.90;;;;;;4945191;28;20410;-73
2022/11/06 03:31:14;;;;;;;19.10;12.13;;;9.60;99.90;;;;;;4964629;28;20450;-74
2022/11/06 03:33:48;;;;;;;13.50;10.07;;;9.60;99.90;;;;;;4972156;28;20049;-75
2022/11/06 03:36:40;;;;;;;15.32;11.55;;;9.40;99.90;;;;;;4973151;28;20038;-75
2022/11/06 03:39:22;;;;;;;13.75;8.88;;;9.50;99.90;;;;;;4955531;28;20156;-75
2022/11/06 03:41:57;;;;;;;15.50;10.55;;;9.40;99.90;;;;;;4972490;28;20035;-75
2022/11/06 03:44:27;;;;;;;11.75;9.07;;;9.70;99.90;;;;;;4973482;28;20039;-74
2022/11/06 03:47:00;;;;;;;11.38;10.15;;;9.60;99.90;;;;;;4987196;28;20049;-74
2022/11/06 03:49:35;;;;;;;17.48;10.68;;;9.50;99.90;;;;;;4955344;28;20509;-75
2022/11/06 03:52:12;;;;;;;15.90;9.45;;;9.40;99.90;;;;;;4971683;28;20082;-74
2022/11/06 03:55:02;;;;;;;13.30;10.32;;;9.40;99.90;;;;;;4972751;28;20055;-75
2022/11/06 03:57:43;;;;;;;21.58;11.80;;;9.60;99.90;;;;;;4964609;28;20051;-74
2022/11/06 04:00:09;;;;;;;15.75;9.48;;;9.60;99.90;;;;;;4971927;28;20185;-75
2022/11/06 04:02:40;;;;;;;23.17;9.82;;;9.50;99.90;;;;;;4972044;28;20564;-77
2022/11/06 04:05:13;;;;;;;18.48;8.88;;;9.50;99.90;;;;;;4975747;28;20051;-74
2022/11/06 04:13:56;;;;;;;18.38;10.98;;;9.60;99.90;;;;;;4968450;28;20042;-73
2022/11/06 04:16:08;;;;;;;13.48;9.20;;;9.50;99.90;;;;;;4970776;28;20514;-74
2022/11/06 04:18:33;;;;;;;14.68;9.40;;;9.70;99.90;;;;;;4970833;28;20043;-74
2022/11/06 04:21:22;;;;;;;15.90;8.88;;;9.50;99.90;;;;;;4952273;28;20583;-74
2022/11/06 04:27:18;;;;;;;10.75;8.13;;;9.60;99.90;;;;;;4969501;28;20047;-74
2022/11/06 04:30:13;;;;;;;17.42;9.15;;;9.50;99.90;;;;;;4971907;28;20046;-73
2022/11/06 04:32:57;;;;;;;17.05;9.73;;;9.70;99.90;;;;;;4952800;28;20130;-75
2022/11/06 04:35:47;;;;;;;15.43;9.38;;;9.70;99.90;;;;;;4969408;28;20405;-74
2022/11/06 04:38:38;;;;;;;14.15;10.65;;;9.70;99.90;;;;;;4952700;28;20061;-75
2022/11/06 04:41:37;;;;;;;13.70;9.15;;;9.70;99.90;;;;;;4970492;28;20054;-75
2022/11/06 04:44:06;;;;;;;12.70;9.27;;;9.60;99.90;;;;;;4984240;28;20051;-73
2022/11/06 04:46:37;;;;;;;15.38;7.97;;;9.80;99.90;;;;;;4934098;29;20425;-74
2022/11/06 04:49:05;;;;;;;11.25;9.20;;;9.60;99.90;;;;;;4950613;28;20050;-74
2022/11/06 04:51:36;;;;;;;13.93;9.07;;;9.60;99.90;;;;;;4984473;28;20046;-74
2022/11/06 04:54:03;;;;;;;9.65;8.55;;;9.70;99.90;;;;;;4984482;28;20134;-74
2022/11/06 04:56:30;;;;;;;17.48;8.20;;;9.50;99.90;;;;;;4966145;28;20050;-74
2022/11/06 04:58:56;;;;;;;12.35;9.15;;;9.50;99.90;;;;;;4969397;28;20053;-74
2022/11/06 05:01:22;;;;;;;17.67;9.18;;;9.60;99.90;;;;;;4985064;28;20042;-74
2022/11/06 05:03:48;;;;;;;10.40;7.70;;;9.60;99.90;;;;;;4955651;28;20434;-75
2022/11/06 05:06:13;;;;;;;13.38;7.95;;;9.70;99.90;;;;;;4979690;28;20382;-74
2022/11/06 05:08:39;;;;;;;20.15;9.65;;;9.70;99.90;;;;;;4968326;28;20081;-73
2022/11/06 05:11:05;;;;;;;13.10;8.85;;;9.70;99.90;;;;;;4952364;28;20128;-74
2022/11/06 05:13:31;;;;;;;12.93;7.72;;;9.70;99.90;;;;;;4923176;29;20143;-75
2022/11/06 05:15:57;;;;;;;9.85;7.05;;;9.70;99.90;;;;;;4929327;29;20566;-75
2022/11/06 05:18:24;;;;;;;11.68;7.47;;;9.70;99.90;;;;;;4930656;29;20094;-74
2022/11/06 05:22:56;;;;;;;21.63;8.77;;;9.70;99.90;;;;;;4959985;28;20072;-74
2022/11/06 05:23:39;;;;;;;11.85;7.75;;;9.50;99.90;;;;;;4929353;29;20074;-75
2022/11/06 05:26:06;;;;;;;15.00;9.10;;;9.60;99.90;;;;;;4929575;29;20043;-74
2022/11/06 05:28:32;;;;;;;12.68;7.20;;;9.70;99.90;;;;;;4930810;29;20043;-75
2022/11/06 05:30:58;;;;;;;12.30;7.63;;;9.50;99.90;;;;;;4930115;29;20059;-74
2022/11/06 05:33:23;;;;;;;13.13;7.47;;;9.70;99.90;;;;;;4961538;28;20039;-74
2022/11/06 05:35:50;;;;;;;13.75;7.47;;;9.50;99.90;;;;;;4928431;29;20479;-74
2022/11/06 05:38:15;;;;;;;13.45;8.20;;;9.60;99.90;;;;;;4944067;28;20059;-75
2022/11/06 05:40:41;;;;;;;17.98;8.93;;;9.50;99.90;;;;;;4932703;29;20062;-75
2022/11/06 05:43:07;;;;;;;10.00;6.43;;;9.60;99.90;;;;;;4939959;28;20043;-74
2022/11/06 05:45:33;;;;;;;27.48;8.43;;;9.50;99.90;;;;;;4976158;28;20048;-74
2022/11/06 05:47:58;;;;;;;13.80;8.75;;;9.50;99.90;;;;;;4967528;28;20483;-73
2022/11/06 05:50:24;;;;;;;22.33;7.10;;;9.60;99.90;;;;;;4933774;29;20071;-75
2022/11/06 05:52:50;;;;;;;12.27;8.07;;;9.60;99.90;;;;;;4917301;29;20050;-74
2022/11/06 05:55:16;;;;;;;14.48;7.13;;;9.60;99.90;;;;;;4937748;29;20064;-74
2022/11/06 05:57:42;;;;;;;10.45;6.82;;;9.40;99.90;;;;;;4968048;28;20047;-74
2022/11/06 06:00:09;;;;;;;15.63;8.55;;;9.40;99.90;;;;;;4935303;29;20063;-74
2022/11/06 06:02:35;;;;;;;12.75;7.20;;;9.40;99.90;;;;;;4937748;29;20050;-73
2022/11/06 06:05:02;;;;;;;7.95;6.38;;;9.60;99.90;;;;;;4927786;29;20040;-73
2022/11/06 06:07:27;;;;;;;8.38;7.40;;;9.40;99.90;;;;;;4950320;28;20039;-74
2022/11/06 06:09:53;;;;;;;11.18;6.05;;;9.60;99.90;;;;;;4931821;29;20052;-74
2022/11/06 06:12:19;;;;;;;11.07;6.75;;;9.40;99.90;;;;;;4935602;28;20418;-74
2022/11/06 06:14:45;;;;;;;12.23;7.28;;;9.40;99.90;;;;;;4955982;28;20039;-74
2022/11/06 06:17:10;;;;;;;23.35;8.55;;;9.50;99.90;;;;;;4975985;28;20043;-74
2022/11/06 06:19:36;;;;;;;12.50;7.85;;;9.40;99.90;;;;;;4970397;28;20069;-74
2022/11/06 06:22:02;;;;;;;14.93;7.25;;;9.30;99.90;;;;;;4989906;28;20082;-72
2022/11/06 06:24:27;;;;;;;14.65;7.72;;;9.40;99.90;;;;;;4987025;28;20054;-74
2022/11/06 06:26:53;;;;;;;12.63;8.05;;;9.40;99.90;;;;;;4957484;28;20046;-73
2022/11/06 06:29:19;;;;;;;12.70;7.15;;;9.40;99.90;;;;;;4974998;28;20527;-74
2022/11/06 06:31:44;;;;;;;10.82;7.60;;;9.30;99.90;;;;;;4971945;28;20042;-73
2022/11/06 06:34:10;;;;;;;12.40;7.50;;;9.50;99.90;;;;;;4984486;28;20050;-74
2022/11/06 06:36:35;;;;;;;13.20;8.15;;;9.50;99.90;;;;;;4962292;28;20390;-73
2022/11/06 06:39:01;;;;;;;16.00;7.32;;;9.50;99.90;;;;;;4989850;28;20046;-73
2022/11/06 06:41:27;;;;;;;19.27;8.55;;;9.50;99.90;;;;;;4975011;28;20582;-73
2022/11/06 06:43:53;;;;;;;18.25;8.20;;;9.40;99.90;;;;;;4973957;28;20034;-72
2022/11/06 06:46:19;;;;;;;24.20;7.38;;;9.50;99.90;;;;;;4974319;28;20049;-72
2022/11/06 06:48:44;;;;;;;10.63;7.03;;;9.50;99.90;;;;;;4966318;28;20038;-73
2022/11/06 06:51:10;;;;;;;14.23;6.00;;;9.30;99.90;;;;;;4942964;28;20757;-74
2022/11/06 06:53:36;;;;;;;18.90;6.53;;;9.50;99.90;;;;;;4955826;28;20432;-74
2022/11/06 06:56:02;;;;;;;11.45;6.45;;;9.60;99.90;;;;;;4953458;28;20043;-72
2022/11/06 06:58:29;;;;;;;10.50;6.35;;;9.50;99.90;;;;;;4969555;28;20521;-72
2022/11/06 07:00:58;;;;;;;17.27;7.85;;;9.40;99.90;;;;;;4970146;28;20042;-73
2022/11/06 07:03:24;;;;;;;11.25;6.35;;;9.40;99.90;;;;;;4937177;28;20462;-74
2022/11/06 07:05:50;;;;;;;17.45;6.32;;;9.40;99.90;;;;;;4981545;28;20147;-75
2022/11/06 07:08:15;;;;;;;12.68;6.55;;;9.70;99.90;;;;;;4982142;28;20087;-74
2022/11/06 07:10:41;;;;;;;12.23;5.13;;;9.60;99.90;;;;;;4967579;28;20126;-75
2022/11/06 07:13:07;;;;;;;18.17;6.78;;;9.60;99.90;;;;;;4963011;28;20482;-73
2022/11/06 07:15:32;;;;;;;10.05;5.05;;;9.50;99.90;;;;;;4972547;28;20109;-73
2022/11/06 07:18:05;;;;;;;8.00;5.20;;;9.60;99.90;;;;;;4968134;28;20046;-72
2022/11/06 07:20:32;;;;;;;11.70;5.53;;;9.50;99.90;;;;;;4948961;28;20046;-74
2022/11/06 07:22:58;;;;;;;15.38;5.47;;;9.40;99.90;;;;;;4950126;28;20054;-73
2022/11/06 07:25:24;;;;;;;10.63;6.18;;;9.40;99.90;;;;;;4968118;28;20438;-74
2022/11/06 07:27:50;;;;;;;10.55;5.95;;;9.60;99.90;;;;;;4947397;28;20115;-74
2022/11/06 07:30:16;;;;;;;12.82;5.07;;;9.50;99.90;;;;;;4968577;28;20042;-73
2022/11/06 07:32:42;;;;;;;15.05;5.90;;;9.60;99.90;;;;;;4966216;28;20049;-74
2022/11/06 07:35:08;;;;;;;11.95;5.88;;;9.60;99.90;;;;;;4966858;28;20038;-73
2022/11/06 07:37:35;;;;;;;13.63;5.35;;;9.40;99.90;;;;;;4969461;28;20034;-75
2022/11/06 07:40:01;;;;;;;15.02;6.10;;;9.60;99.90;;;;;;4937193;28;20051;-74
2022/11/06 07:42:27;;;;;;;9.98;5.63;;;9.70;99.90;;;;;;4949888;28;20042;-74
2022/11/06 07:44:54;;;;;;;9.85;4.65;;;9.60;99.90;;;;;;4962808;28;20039;-74
2022/11/06 07:47:21;;;;;;;10.10;4.80;;;9.60;99.90;;;;;;4985451;28;20050;-74
2022/11/06 07:49:46;;;;;;;11.25;5.05;;;9.50;99.90;;;;;;4950879;28;20437;-74
2022/11/06 07:52:12;;;;;;;10.50;4.45;;;9.40;99.90;;;;;;4952989;28;20110;-74
2022/11/06 07:54:38;;;;;;;10.68;4.22;;;9.60;99.90;;;;;;4970009;28;20042;-75
2022/11/06 07:57:03;;;;;;;10.23;4.97;;;9.60;99.90;;;;;;4986024;28;20057;-75
2022/11/06 07:59:29;;;;;;;10.23;4.95;;;9.60;99.90;;;;;;4970025;28;20045;-74
2022/11/06 08:01:55;;;;;;;8.02;4.40;;;9.60;99.90;;;;;;4967618;28;20043;-75
2022/11/06 08:04:20;;;;;;;12.82;5.57;;;9.70;99.90;;;;;;4967978;28;20462;-73
2022/11/06 08:06:46;;;;;;;9.90;4.57;;;9.80;99.90;;;;;;4985302;28;20047;-71
2022/11/06 08:09:12;;;;;;;7.55;3.58;;;9.60;99.90;;;;;;4966420;28;20101;-70
2022/11/06 08:11:37;;;;;;;9.40;4.22;;;9.70;99.90;;;;;;4940371;28;20109;-71
2022/11/06 08:14:03;;;;;;;13.05;4.03;;;9.80;99.90;;;;;;4970578;28;20054;-70
2022/11/06 08:16:29;;;;;;;15.90;5.13;;;9.70;99.90;;;;;;4962393;28;20047;-70
2022/11/06 08:18:55;;;;;;;10.25;4.05;;;9.60;99.90;;;;;;4966791;28;20047;-71
2022/11/06 08:21:21;;;;;;;13.07;5.38;;;9.70;99.90;;;;;;4948700;28;20408;-70
2022/11/06 08:23:47;;;;;;;8.05;3.47;;;9.50;99.90;;;;;;4952402;28;20122;-72
2022/11/06 08:26:13;;;;;;;15.50;4.10;;;9.60;99.90;;;;;;4966523;28;20184;-74
2022/11/06 08:28:38;;;;;;;10.10;3.20;;;9.50;99.90;;;;;;4965123;28;20462;-71
2022/11/06 08:31:05;;;;;;;7.28;3.92;;;9.60;99.90;;;;;;4980553;28;20061;-74
2022/11/06 08:33:32;;;;;;;12.05;4.15;;;9.70;99.90;;;;;;4966759;28;20049;-73
2022/11/06 08:36:05;;;;;;;25.95;4.53;;;9.60;99.90;;;;;;4967344;28;20433;-73
2022/11/06 08:38:31;;;;;;;8.02;2.47;;;9.70;99.90;;;;;;4931050;28;20433;-73
2022/11/06 08:40:56;;;;;;;11.80;4.15;;;9.70;99.90;;;;;;4966358;28;20100;-72
2022/11/06 08:43:25;;;;;;;13.35;2.88;;;9.60;99.90;;;;;;4964029;28;20046;-72
2022/11/06 08:45:51;;;;;;;11.77;3.88;;;9.60;99.90;;;;;;4966837;28;22114;-71
2022/11/06 08:48:17;;;;;;;12.43;3.97;;;9.80;99.90;;;;;;4931507;28;20101;-74
2022/11/06 08:50:42;;;;;;;11.63;3.15;;;9.90;99.90;;;;;;4965779;28;20031;-72
2022/11/06 08:53:08;;;;;;;14.02;4.88;;;9.80;99.90;;;;;;4980497;28;20146;-73
2022/11/06 08:55:36;;;;;;;9.38;3.95;;;9.90;99.90;;;;;;4982225;28;20053;-73
2022/11/06 08:58:03;;;;;;;12.68;3.50;;;9.90;99.90;;;;;;4967483;28;20058;-71
2022/11/06 09:00:29;;;;;;;11.88;4.50;;;9.70;99.90;;;;;;4968801;28;20047;-75
2022/11/06 09:03:03;;;;;;;6.43;2.72;;;9.70;99.90;;;;;;4963808;28;20047;-72
2022/11/06 09:05:29;;;;;;;8.63;3.20;;;9.80;99.90;;;;;;4947367;28;20190;-71
2022/11/06 09:07:56;;;;;;;26.10;4.15;;;10.00;99.90;;;;;;4965013;28;20146;-72
2022/11/06 09:10:23;;;;;;;13.90;3.10;;;9.90;99.90;;;;;;4982750;28;20046;-72
2022/11/06 09:12:49;;;;;;;14.02;4.05;;;10.10;99.90;;;;;;4946910;28;20050;-71
2022/11/06 09:15:15;;;;;;;6.60;2.78;;;10.00;99.90;;;;;;4979515;28;20113;-72
2022/11/06 09:17:45;;;;;;;10.98;3.30;;;9.90;99.90;;;;;;4964770;28;20482;-74
2022/11/06 09:20:13;;;;;;;10.40;3.30;;;10.00;99.90;;;;;;4962196;28;20074;-73
2022/11/06 09:22:39;;;;;;;8.65;3.08;;;9.90;99.90;;;;;;4963794;28;20172;-72
2022/11/06 09:25:05;;;;;;;11.18;3.22;;;10.10;99.90;;;;;;4967682;28;20054;-73
2022/11/06 09:27:31;;;;;;;9.75;3.63;;;10.00;99.90;;;;;;4947047;28;20043;-75
2022/11/06 09:29:57;;;;;;;11.35;3.38;;;10.10;99.90;;;;;;4960835;28;20169;-75
2022/11/06 09:32:23;;;;;;;6.10;2.80;;;10.20;99.90;;;;;;4946979;28;20045;-75
2022/11/06 09:34:49;;;;;;;7.50;3.20;;;10.10;99.90;;;;;;4945172;28;20059;-75
2022/11/06 09:37:14;;;;;;;10.65;3.70;;;10.20;99.90;;;;;;4966729;28;20057;-74
2022/11/06 09:39:40;;;;;;;12.57;6.07;;;10.10;99.90;;;;;;4964318;28;20062;-74
2022/11/06 09:42:38;;;;;;;15.82;6.25;;;10.20;99.90;;;;;;4948238;28;20067;-74
2022/11/06 09:45:14;;;;;;;8.40;3.80;;;10.20;99.90;;;;;;4944711;28;20456;-74
2022/11/06 09:47:44;;;;;;;4.40;2.50;;;10.20;99.90;;;;;;4935236;28;20067;-74
2022/11/06 09:50:22;;;;;;;3.65;1.95;;;10.30;99.90;;;;;;4944155;28;20055;-73
2022/11/06 09:52:59;;;;;;;7.82;2.78;;;10.40;99.90;;;;;;4960356;28;20051;-75
2022/11/06 09:55:39;;;;;;;4.05;2.17;;;10.20;99.90;;;;;;4968667;28;20062;-75
2022/11/06 09:58:13;;;;;;;10.23;2.75;;;10.40;99.90;;;;;;4983603;28;20393;-75
2022/11/06 10:00:40;;;;;;;6.95;2.53;;;10.30;99.90;;;;;;4929757;28;20054;-74
2022/11/06 10:03:41;;;;;;;8.13;3.60;;;10.50;99.90;;;;;;4978333;28;20035;-74
2022/11/06 10:06:07;;;;;;;6.88;2.67;;;10.40;99.90;;;;;;4957938;28;20398;-72
2022/11/06 10:08:33;;;;;;;5.50;2.42;;;10.40;99.90;;;;;;4949507;28;20047;-73
2022/11/06 10:11:13;;;;;;;12.80;3.20;;;10.40;99.90;;;;;;4956266;28;20039;-75
2022/11/06 10:14:01;;;;;;;11.07;3.33;;;10.60;99.90;;;;;;4965326;28;20103;-75
2022/11/06 10:16:56;;;;;;;4.93;2.30;;;10.70;99.90;;;;;;4954113;28;20039;-75
2022/11/06 10:19:36;;;;;;;9.02;3.33;;;10.70;99.90;;;;;;4981547;28;20121;-74
2022/11/06 10:22:42;;;;;;;5.72;2.83;;;10.70;99.90;;;;;;4979231;28;20122;-74
2022/11/06 10:25:20;;;;;;;5.10;1.90;;;10.90;99.90;;;;;;4924106;29;20051;-77
2022/11/06 10:28:12;;;;;;;6.75;2.50;;;10.90;99.90;;;;;;4984756;28;20047;-76
2022/11/06 10:31:04;;;;;;;5.72;2.13;;;11.00;99.90;;;;;;4943921;29;20053;-78
2022/11/06 10:33:55;;;;;;;8.45;2.40;;;10.90;99.90;;;;;;4981877;28;20054;-75
2022/11/06 10:36:44;;;;;;;5.57;2.78;;;11.00;99.90;;;;;;4964287;28;20430;-72
2022/11/06 10:39:15;;;;;;;8.45;2.83;;;11.00;99.90;;;;;;4946511;28;20121;-72
2022/11/06 10:41:45;;;;;;;5.47;1.73;;;11.00;99.90;;;;;;4942415;29;20063;-73
2022/11/06 10:44:26;;;;;;;8.40;2.40;;;11.00;99.90;;;;;;4948270;28;20043;-72
2022/11/06 10:47:30;;;;;;;5.93;2.22;;;11.20;99.90;;;;;;4980433;28;20043;-73
2022/11/06 10:49:59;;;;;;;5.72;1.65;;;11.10;99.90;;;;;;4932700;28;20097;-73
2022/11/06 10:53:04;;;;;;;2.55;1.67;;;11.10;99.90;;;;;;4952146;29;20043;-73
2022/11/06 10:56:14;;;;;;;11.13;3.88;;;11.10;99.90;;;;;;4964772;28;20051;-73
2022/11/06 10:58:39;;;;;;;5.27;2.03;;;11.10;99.90;;;;;;4949734;29;20053;-73
2022/11/06 11:01:11;;;;;;;6.97;4.25;;;11.10;99.90;;;;;;4949601;28;20035;-72
2022/11/06 11:03:42;;;;;;;6.18;1.88;;;11.10;99.90;;;;;;4951197;28;20054;-73
2022/11/06 11:06:08;;;;;;;9.93;2.13;;;11.00;99.90;;;;;;4948064;28;20040;-73
2022/11/06 11:08:41;;;;;;;6.70;2.10;;;11.20;99.90;;;;;;4983759;28;20054;-73
2022/11/06 11:11:12;;;;;;;7.22;2.88;;;11.00;99.90;;;;;;4951013;28;20040;-73
2022/11/06 11:13:42;;;;;;;8.25;2.47;;;11.10;99.90;;;;;;4969674;28;20067;-72
2022/11/06 11:16:20;;;;;;;;;;;11.00;99.90;;;;;;4930061;29;20060;-73
2022/11/06 11:18:47;;;;;;;5.75;1.80;;;10.90;99.90;;;;;;4926226;29;20406;-73
2022/11/06 11:21:18;;;;;;;6.35;1.90;;;10.90;99.90;;;;;;4913478;29;20062;-73
2022/11/06 11:24:07;;;;;;;6.10;3.58;;;11.00;99.90;;;;;;4923949;29;20075;-73
2022/11/06 11:26:54;;;;;;;11.70;5.13;;;11.00;99.90;;;;;;4958757;28;20048;-73
2022/11/06 11:29:27;;;;;;;5.47;3.58;;;11.10;99.90;;;;;;4925712;28;20043;-73
2022/11/06 11:31:56;;;;;;;23.67;3.38;;;11.20;99.90;;;;;;4926181;29;20066;-73
2022/11/06 11:34:31;;;;;;;9.63;2.60;;;11.20;99.90;;;;;;4940332;29;20060;-73
2022/11/06 11:37:01;;;;;;;14.48;4.00;;;11.30;99.90;;;;;;4924882;29;20138;-73
2022/11/06 11:39:30;;;;;;;12.70;2.25;;;11.20;99.90;;;;;;4925144;29;20043;-73
2022/11/06 11:42:16;;;;;;;8.23;2.00;;;11.30;99.90;;;;;;4931601;29;20087;-72
2022/11/06 11:44:42;;;;;;;9.57;2.90;;;11.30;99.90;;;;;;4924576;29;20156;-74
2022/11/06 11:47:21;;;;;;;11.40;2.67;;;11.30;99.90;;;;;;4961436;28;20073;-74
2022/11/06 11:49:47;;;;;;;6.25;2.40;;;11.50;99.90;;;;;;4958984;28;20098;-74
2022/11/06 11:52:18;;;;;;;5.85;2.70;;;11.60;99.90;;;;;;4931643;29;20557;-75
2022/11/06 11:54:51;;;;;;;6.45;2.13;;;11.50;99.90;;;;;;4928830;29;20116;-75
2022/11/06 11:57:20;;;;;;;5.55;1.60;;;11.70;99.90;;;;;;4929674;29;20044;-74
2022/11/06 11:59:55;;;;;;;5.10;1.50;;;11.70;99.90;;;;;;4959178;28;20095;-73
2022/11/06 12:02:35;;;;;;;6.13;2.13;;;11.70;99.90;;;;;;4929908;29;20066;-73
2022/11/06 12:05:12;;;;;;;6.10;2.30;;;11.80;99.90;;;;;;4925534;29;20447;-74
2022/11/06 12:07:46;;;;;;;5.63;2.15;;;11.80;99.90;;;;;;4930999;29;20440;-75
2022/11/06 12:10:21;;;;;;;14.88;4.22;;;11.70;99.90;;;;;;4928542;29;20745;-75
2022/11/06 12:12:52;;;;;;;10.07;2.78;;;11.70;99.90;;;;;;4945184;28;20118;-71
2022/11/06 12:15:20;;;;;;;8.45;2.85;;;11.80;99.90;;;;;;4927834;29;20051;-71
2022/11/06 12:18:11;;;;;;;9.00;3.60;;;11.80;99.90;;;;;;4928506;29;20062;-71
2022/11/06 12:20:56;;;;;;;10.85;2.15;;;11.70;99.90;;;;;;4930285;29;20043;-73
2022/11/06 12:23:32;;;;;;;5.90;2.22;;;11.80;99.90;;;;;;4930989;28;20488;-72
2022/11/06 12:26:27;;;;;;;5.53;2.50;;;11.80;99.90;;;;;;4944440;28;20052;-73
2022/11/06 12:29:12;;;;;;;7.22;2.08;;;11.80;99.90;;;;;;4927441;29;20495;-72
2022/11/06 12:31:45;;;;;;;7.75;2.17;;;11.90;99.90;;;;;;4922477;29;20062;-74
2022/11/06 12:34:18;;;;;;;5.28;3.13;;;11.80;99.90;;;;;;4925657;29;20101;-72
2022/11/06 12:37:18;;;;;;;6.47;1.52;;;11.70;99.90;;;;;;4916334;29;20063;-74
2022/11/06 12:39:51;;;;;;;4.95;2.42;;;11.80;99.90;;;;;;4894607;29;20058;-72
2022/11/06 12:42:19;;;;;;;5.80;2.47;;;11.80;99.90;;;;;;4930640;29;20043;-76
2022/11/06 12:44:46;;;;;;;5.88;1.63;;;11.70;99.90;;;;;;4920914;29;20048;-72
2022/11/06 12:47:16;;;;;;;11.15;3.58;;;11.80;99.90;;;;;;4961983;28;20056;-74
2022/11/06 12:49:50;;;;;;;5.40;1.90;;;11.70;99.90;;;;;;4928626;28;20491;-75
2022/11/06 12:52:27;;;;;;;3.78;1.50;;;11.60;99.90;;;;;;4931902;29;20054;-76
2022/11/06 12:55:22;;;;;;;4.18;1.77;;;11.60;99.90;;;;;;4929445;29;20036;-75
2022/11/06 12:58:10;;;;;;;10.52;2.90;;;11.50;99.90;;;;;;4927093;29;20059;-76
2022/11/06 13:01:17;;;;;;;6.47;2.47;;;11.40;99.90;;;;;;4925408;29;20107;-75
2022/11/06 13:03:43;;;;;;;5.80;1.70;;;11.40;99.90;;;;;;4928571;29;20060;-76
2022/11/06 13:06:43;;;;;;;8.23;1.55;;;11.30;99.90;;;;;;4928364;29;20123;-76
2022/11/06 13:09:30;;;;;;;2.83;1.40;;;11.20;99.90;;;;;;4928031;29;20051;-74
2022/11/06 13:12:10;;;;;;;6.63;2.53;;;11.10;99.90;;;;;;4925983;29;20070;-74
2022/11/06 13:15:00;;;;;;;7.72;2.67;;;11.10;99.90;;;;;;4977842;28;20054;-74
2022/11/06 13:17:31;;;;;;;8.15;2.45;;;11.00;99.90;;;;;;4963282;28;20406;-76
2022/11/06 13:20:06;;;;;;;7.13;2.88;;;11.00;99.90;;;;;;4949583;28;20077;-74
2022/11/06 13:22:55;;;;;;;7.38;2.05;;;11.10;99.90;;;;;;4945446;28;20149;-75
2022/11/06 13:25:46;;;;;;;8.63;3.25;;;11.10;99.90;;;;;;4966793;28;20134;-74